sensor_id;sensor_type;location;lat;lon;timestamp;temperature;humidity
32614;DHT22;19031;51.400;6.770;2023-12-14T00:00:18;8.80;99.90
32614;DHT22;19031;51.400;6.770;2023-12-14T00:02:44;8.80;99.90
32614;DHT22;19031;51.400;6.770;2023-12-14T00:05:10;8.70;99.90
32614;DHT22;19031;51.400;6.770;2023-12-14T00:07:35;8.90;99.90
32614;DHT22;19031;51.400;6.770;2023-12-14T00:10:01;8.80;99.90
32614;DHT22;19031;51.400;6.770;2023-12-14T00:12:28;8.80;99.90
32614;DHT22;19031;51.400;6.770;2023-12-14T00:14:53;8.70;99.90
32614;DHT22;19031;51.400;6.770;2023-12-14T00:17:19;8.50;99.90
32614;DHT22;19031;51.400;6.770;2023-12-14T00:19:44;8.50;99.90
32614;DHT22;19031;51.400;6.770;2023-12-14T00:22:10;8.50;99.90
32614;DHT22;19031;51.400;6.770;2023-12-14T00:24:36;8.40;99.90
32614;DHT22;19031;51.400;6.770;2023-12-14T00:27:01;8.30;99.90
32614;DHT22;19031;51.400;6.770;2023-12-14T00:29:27;8.20;99.90
32614;DHT22;19031;51.400;6.770;2023-12-14T00:31:53;8.20;99.90
32614;DHT22;19031;51.400;6.770;2023-12-14T00:34:18;8.20;99.90
32614;DHT22;19031;51.400;6.770;2023-12-14T00:36:44;8.20;99.90
32614;DHT22;19031;51.400;6.770;2023-12-14T00:39:09;8.10;99.90
32614;DHT22;19031;51.400;6.770;2023-12-14T00:41:35;8.10;99.90
32614;DHT22;19031;51.400;6.770;2023-12-14T00:44:00;8.10;99.90
32614;DHT22;19031;51.400;6.770;2023-12-14T00:46:26;8.00;99.90
32614;DHT22;19031;51.400;6.770;2023-12-14T00:48:51;7.90;99.90
32614;DHT22;19031;51.400;6.770;2023-12-14T00:51:17;8.00;99.90
32614;DHT22;19031;51.400;6.770;2023-12-14T00:53:43;8.00;99.90
32614;DHT22;19031;51.400;6.770;2023-12-14T00:56:08;8.00;99.90
32614;DHT22;19031;51.400;6.770;2023-12-14T00:58:34;7.90;99.90
32614;DHT22;19031;51.400;6.770;2023-12-14T01:01:00;7.90;99.90
32614;DHT22;19031;51.400;6.770;2023-12-14T01:03:25;7.90;99.90
32614;DHT22;19031;51.400;6.770;2023-12-14T01:05:51;7.90;99.90
32614;DHT22;19031;51.400;6.770;2023-12-14T01:08:16;7.90;99.90
32614;DHT22;19031;51.400;6.770;2023-12-14T01:10:42;7.90;99.90
32614;DHT22;19031;51.400;6.770;2023-12-14T01:13:08;7.90;99.90
32614;DHT22;19031;51.400;6.770;2023-12-14T01:15:34;7.90;99.90
32614;DHT22;19031;51.400;6.770;2023-12-14T01:17:59;7.80;99.90
32614;DHT22;19031;51.400;6.770;2023-12-14T01:20:25;7.90;99.90
32614;DHT22;19031;51.400;6.770;2023-12-14T01:22:51;7.90;99.90
32614;DHT22;19031;51.400;6.770;2023-12-14T01:25:16;7.80;99.90
32614;DHT22;19031;51.400;6.770;2023-12-14T01:27:42;7.70;99.90
32614;DHT22;19031;51.400;6.770;2023-12-14T01:30:08;7.70;99.90
32614;DHT22;19031;51.400;6.770;2023-12-14T01:32:33;7.60;99.90
32614;DHT22;19031;51.400;6.770;2023-12-14T01:34:59;7.60;99.90
32614;DHT22;19031;51.400;6.770;2023-12-14T01:37:24;7.60;99.90
32614;DHT22;19031;51.400;6.770;2023-12-14T01:39:50;7.70;99.90
32614;DHT22;19031;51.400;6.770;2023-12-14T01:42:15;7.70;99.90
32614;DHT22;19031;51.400;6.770;2023-12-14T01:44:41;7.70;99.90
32614;DHT22;19031;51.400;6.770;2023-12-14T01:47:06;7.60;99.90
32614;DHT22;19031;51.400;6.770;2023-12-14T01:49:32;7.60;99.90
32614;DHT22;19031;51.400;6.770;2023-12-14T01:51:57;7.50;99.90
32614;DHT22;19031;51.400;6.770;2023-12-14T01:54:23;7.70;99.90
32614;DHT22;19031;51.400;6.770;2023-12-14T01:56:48;7.50;99.90
32614;DHT22;19031;51.400;6.770;2023-12-14T01:59:14;7.50;99.90
32614;DHT22;19031;51.400;6.770;2023-12-14T02:01:43;7.60;99.90
32614;DHT22;19031;51.400;6.770;2023-12-14T02:04:10;7.60;99.90
32614;DHT22;19031;51.400;6.770;2023-12-14T02:06:36;7.60;99.90
32614;DHT22;19031;51.400;6.770;2023-12-14T02:09:02;7.60;99.90
32614;DHT22;19031;51.400;6.770;2023-12-14T02:11:27;7.60;99.90
32614;DHT22;19031;51.400;6.770;2023-12-14T02:13:53;7.60;99.90
32614;DHT22;19031;51.400;6.770;2023-12-14T02:16:18;7.60;99.90
32614;DHT22;19031;51.400;6.770;2023-12-14T02:18:45;7.60;99.90
32614;DHT22;19031;51.400;6.770;2023-12-14T02:21:11;7.50;99.90
32614;DHT22;19031;51.400;6.770;2023-12-14T02:23:45;7.60;99.90
32614;DHT22;19031;51.400;6.770;2023-12-14T02:26:12;7.60;99.90
32614;DHT22;19031;51.400;6.770;2023-12-14T02:28:38;7.60;99.90
32614;DHT22;19031;51.400;6.770;2023-12-14T02:31:04;7.60;99.90
32614;DHT22;19031;51.400;6.770;2023-12-14T02:33:29;7.50;99.90
32614;DHT22;19031;51.400;6.770;2023-12-14T02:35:55;7.40;99.90
32614;DHT22;19031;51.400;6.770;2023-12-14T02:38:20;7.40;99.90
32614;DHT22;19031;51.400;6.770;2023-12-14T02:40:46;7.40;99.90
32614;DHT22;19031;51.400;6.770;2023-12-14T02:43:12;7.30;99.90
32614;DHT22;19031;51.400;6.770;2023-12-14T02:45:38;7.30;99.90
32614;DHT22;19031;51.400;6.770;2023-12-14T02:48:04;7.20;99.90
32614;DHT22;19031;51.400;6.770;2023-12-14T02:50:30;7.20;99.90
32614;DHT22;19031;51.400;6.770;2023-12-14T02:52:55;7.20;99.90
32614;DHT22;19031;51.400;6.770;2023-12-14T02:55:21;7.10;99.90
32614;DHT22;19031;51.400;6.770;2023-12-14T02:57:47;7.20;99.90
32614;DHT22;19031;51.400;6.770;2023-12-14T03:00:12;7.10;99.90
32614;DHT22;19031;51.400;6.770;2023-12-14T03:02:38;7.10;99.90
32614;DHT22;19031;51.400;6.770;2023-12-14T03:05:04;7.00;99.90
32614;DHT22;19031;51.400;6.770;2023-12-14T03:07:30;7.00;99.90
32614;DHT22;19031;51.400;6.770;2023-12-14T03:09:55;7.00;99.90
32614;DHT22;19031;51.400;6.770;2023-12-14T03:12:21;7.00;99.90
32614;DHT22;19031;51.400;6.770;2023-12-14T03:14:46;7.10;99.90
32614;DHT22;19031;51.400;6.770;2023-12-14T03:17:12;7.00;99.90
32614;DHT22;19031;51.400;6.770;2023-12-14T03:19:41;7.00;99.90
32614;DHT22;19031;51.400;6.770;2023-12-14T03:22:08;7.00;99.90
32614;DHT22;19031;51.400;6.770;2023-12-14T03:24:34;7.00;99.90
32614;DHT22;19031;51.400;6.770;2023-12-14T03:27:01;7.00;99.90
32614;DHT22;19031;51.400;6.770;2023-12-14T03:29:28;7.00;99.90
32614;DHT22;19031;51.400;6.770;2023-12-14T03:31:54;7.00;99.90
32614;DHT22;19031;51.400;6.770;2023-12-14T03:34:20;6.90;99.90
32614;DHT22;19031;51.400;6.770;2023-12-14T03:36:45;7.00;99.90
32614;DHT22;19031;51.400;6.770;2023-12-14T03:39:11;7.00;99.90
32614;DHT22;19031;51.400;6.770;2023-12-14T03:41:37;7.00;99.90
32614;DHT22;19031;51.400;6.770;2023-12-14T03:44:04;6.90;99.90
32614;DHT22;19031;51.400;6.770;2023-12-14T03:46:29;7.00;99.90
32614;DHT22;19031;51.400;6.770;2023-12-14T03:48:55;7.00;99.90
32614;DHT22;19031;51.400;6.770;2023-12-14T03:51:22;7.00;99.90
32614;DHT22;19031;51.400;6.770;2023-12-14T03:53:47;7.00;99.90
32614;DHT22;19031;51.400;6.770;2023-12-14T03:56:13;7.00;99.90
32614;DHT22;19031;51.400;6.770;2023-12-14T03:58:39;6.90;99.90
32614;DHT22;19031;51.400;6.770;2023-12-14T04:01:04;7.00;99.90
32614;DHT22;19031;51.400;6.770;2023-12-14T04:03:30;7.10;99.90
32614;DHT22;19031;51.400;6.770;2023-12-14T04:05:55;7.00;99.90
32614;DHT22;19031;51.400;6.770;2023-12-14T04:08:21;6.90;99.90
32614;DHT22;19031;51.400;6.770;2023-12-14T04:10:46;6.90;99.90
32614;DHT22;19031;51.400;6.770;2023-12-14T04:13:12;6.90;99.90
32614;DHT22;19031;51.400;6.770;2023-12-14T04:15:38;6.90;99.90
32614;DHT22;19031;51.400;6.770;2023-12-14T04:18:03;6.90;99.90
32614;DHT22;19031;51.400;6.770;2023-12-14T04:20:29;6.90;99.90
32614;DHT22;19031;51.400;6.770;2023-12-14T04:22:55;6.90;99.90
32614;DHT22;19031;51.400;6.770;2023-12-14T04:25:20;6.80;99.90
32614;DHT22;19031;51.400;6.770;2023-12-14T04:27:46;6.80;99.90
32614;DHT22;19031;51.400;6.770;2023-12-14T04:30:12;6.90;99.90
32614;DHT22;19031;51.400;6.770;2023-12-14T04:32:38;6.90;99.90
32614;DHT22;19031;51.400;6.770;2023-12-14T04:35:04;6.80;99.90
32614;DHT22;19031;51.400;6.770;2023-12-14T04:37:30;6.80;99.90
32614;DHT22;19031;51.400;6.770;2023-12-14T04:39:59;6.70;99.90
32614;DHT22;19031;51.400;6.770;2023-12-14T04:42:25;6.80;99.90
32614;DHT22;19031;51.400;6.770;2023-12-14T04:44:50;6.70;99.90
32614;DHT22;19031;51.400;6.770;2023-12-14T04:47:16;6.80;99.90
32614;DHT22;19031;51.400;6.770;2023-12-14T04:49:41;6.80;99.90
32614;DHT22;19031;51.400;6.770;2023-12-14T04:52:07;6.60;99.90
32614;DHT22;19031;51.400;6.770;2023-12-14T04:54:33;6.60;99.90
32614;DHT22;19031;51.400;6.770;2023-12-14T04:57:01;6.70;99.90
32614;DHT22;19031;51.400;6.770;2023-12-14T04:59:26;6.60;99.90
32614;DHT22;19031;51.400;6.770;2023-12-14T05:01:52;6.60;99.90
32614;DHT22;19031;51.400;6.770;2023-12-14T05:04:17;6.70;99.90
32614;DHT22;19031;51.400;6.770;2023-12-14T05:06:43;6.70;99.90
32614;DHT22;19031;51.400;6.770;2023-12-14T05:09:08;6.70;99.90
32614;DHT22;19031;51.400;6.770;2023-12-14T05:11:36;6.70;99.90
32614;DHT22;19031;51.400;6.770;2023-12-14T05:14:02;6.70;99.90
32614;DHT22;19031;51.400;6.770;2023-12-14T05:16:28;6.60;99.90
32614;DHT22;19031;51.400;6.770;2023-12-14T05:18:54;6.60;99.90
32614;DHT22;19031;51.400;6.770;2023-12-14T05:21:19;6.70;99.90
32614;DHT22;19031;51.400;6.770;2023-12-14T05:23:45;6.70;99.90
32614;DHT22;19031;51.400;6.770;2023-12-14T05:26:11;6.70;99.90
32614;DHT22;19031;51.400;6.770;2023-12-14T05:28:36;6.70;99.90
32614;DHT22;19031;51.400;6.770;2023-12-14T05:31:02;6.70;99.90
32614;DHT22;19031;51.400;6.770;2023-12-14T05:33:28;6.70;99.90
32614;DHT22;19031;51.400;6.770;2023-12-14T05:35:54;6.60;99.90
32614;DHT22;19031;51.400;6.770;2023-12-14T05:38:19;6.70;99.90
32614;DHT22;19031;51.400;6.770;2023-12-14T05:40:45;6.70;99.90
32614;DHT22;19031;51.400;6.770;2023-12-14T05:43:11;6.70;99.90
32614;DHT22;19031;51.400;6.770;2023-12-14T05:45:36;6.70;99.90
32614;DHT22;19031;51.400;6.770;2023-12-14T05:48:02;6.70;99.90
32614;DHT22;19031;51.400;6.770;2023-12-14T05:50:30;6.80;99.90
32614;DHT22;19031;51.400;6.770;2023-12-14T05:52:56;6.80;99.90
32614;DHT22;19031;51.400;6.770;2023-12-14T05:55:22;6.90;99.90
32614;DHT22;19031;51.400;6.770;2023-12-14T05:57:50;6.90;99.90
32614;DHT22;19031;51.400;6.770;2023-12-14T06:00:18;6.80;99.90
32614;DHT22;19031;51.400;6.770;2023-12-14T06:02:43;6.80;99.90
32614;DHT22;19031;51.400;6.770;2023-12-14T06:05:09;6.80;99.90
32614;DHT22;19031;51.400;6.770;2023-12-14T06:07:35;6.80;99.90
32614;DHT22;19031;51.400;6.770;2023-12-14T06:10:00;6.70;99.90
32614;DHT22;19031;51.400;6.770;2023-12-14T06:12:27;6.70;99.90
32614;DHT22;19031;51.400;6.770;2023-12-14T06:14:52;6.70;99.90
32614;DHT22;19031;51.400;6.770;2023-12-14T06:17:18;6.70;99.90
32614;DHT22;19031;51.400;6.770;2023-12-14T06:19:44;6.60;99.90
32614;DHT22;19031;51.400;6.770;2023-12-14T06:22:09;6.50;99.90
32614;DHT22;19031;51.400;6.770;2023-12-14T06:24:35;6.50;99.90
32614;DHT22;19031;51.400;6.770;2023-12-14T06:27:00;6.60;99.90
32614;DHT22;19031;51.400;6.770;2023-12-14T06:29:26;6.60;99.90
32614;DHT22;19031;51.400;6.770;2023-12-14T06:31:52;6.60;99.90
32614;DHT22;19031;51.400;6.770;2023-12-14T06:34:17;6.70;99.90
32614;DHT22;19031;51.400;6.770;2023-12-14T06:36:44;6.50;99.90
32614;DHT22;19031;51.400;6.770;2023-12-14T06:39:10;6.60;99.90
32614;DHT22;19031;51.400;6.770;2023-12-14T06:41:36;6.50;99.90
32614;DHT22;19031;51.400;6.770;2023-12-14T06:44:02;6.50;99.90
32614;DHT22;19031;51.400;6.770;2023-12-14T06:46:28;6.60;99.90
32614;DHT22;19031;51.400;6.770;2023-12-14T06:48:54;6.60;99.90
32614;DHT22;19031;51.400;6.770;2023-12-14T06:51:23;6.50;99.90
32614;DHT22;19031;51.400;6.770;2023-12-14T06:53:49;6.60;99.90
32614;DHT22;19031;51.400;6.770;2023-12-14T06:56:15;6.50;99.90
32614;DHT22;19031;51.400;6.770;2023-12-14T06:58:43;6.60;99.90
32614;DHT22;19031;51.400;6.770;2023-12-14T07:01:16;6.40;99.90
32614;DHT22;19031;51.400;6.770;2023-12-14T07:03:43;6.50;99.90
32614;DHT22;19031;51.400;6.770;2023-12-14T07:06:18;6.50;99.90
32614;DHT22;19031;51.400;6.770;2023-12-14T07:08:44;6.60;99.90
32614;DHT22;19031;51.400;6.770;2023-12-14T07:11:10;6.50;99.90
32614;DHT22;19031;51.400;6.770;2023-12-14T07:13:37;6.40;99.90
32614;DHT22;19031;51.400;6.770;2023-12-14T07:16:12;6.40;99.90
32614;DHT22;19031;51.400;6.770;2023-12-14T07:18:38;6.50;99.90
32614;DHT22;19031;51.400;6.770;2023-12-14T07:21:05;6.30;99.90
32614;DHT22;19031;51.400;6.770;2023-12-14T07:23:30;6.40;99.90
32614;DHT22;19031;51.400;6.770;2023-12-14T07:25:56;6.40;99.90
32614;DHT22;19031;51.400;6.770;2023-12-14T07:28:22;6.40;99.90
32614;DHT22;19031;51.400;6.770;2023-12-14T07:30:48;6.40;99.90
32614;DHT22;19031;51.400;6.770;2023-12-14T07:33:14;6.30;99.90
32614;DHT22;19031;51.400;6.770;2023-12-14T07:35:40;6.40;99.90
32614;DHT22;19031;51.400;6.770;2023-12-14T07:38:05;6.40;99.90
32614;DHT22;19031;51.400;6.770;2023-12-14T07:40:31;6.40;99.90
32614;DHT22;19031;51.400;6.770;2023-12-14T07:42:57;6.40;99.90
32614;DHT22;19031;51.400;6.770;2023-12-14T07:45:22;6.30;99.90
32614;DHT22;19031;51.400;6.770;2023-12-14T07:47:48;6.30;99.90
32614;DHT22;19031;51.400;6.770;2023-12-14T07:50:14;6.30;99.90
32614;DHT22;19031;51.400;6.770;2023-12-14T07:52:39;6.20;99.90
32614;DHT22;19031;51.400;6.770;2023-12-14T07:55:06;6.30;99.90
32614;DHT22;19031;51.400;6.770;2023-12-14T07:57:32;6.30;99.90
32614;DHT22;19031;51.400;6.770;2023-12-14T07:59:57;6.30;99.90
32614;DHT22;19031;51.400;6.770;2023-12-14T08:02:23;6.20;99.90
32614;DHT22;19031;51.400;6.770;2023-12-14T08:04:49;6.30;99.90
32614;DHT22;19031;51.400;6.770;2023-12-14T08:07:14;6.30;99.90
32614;DHT22;19031;51.400;6.770;2023-12-14T08:09:40;6.30;99.90
32614;DHT22;19031;51.400;6.770;2023-12-14T08:12:06;6.30;99.90
32614;DHT22;19031;51.400;6.770;2023-12-14T08:14:34;6.30;99.90
32614;DHT22;19031;51.400;6.770;2023-12-14T08:17:03;6.30;99.90
32614;DHT22;19031;51.400;6.770;2023-12-14T08:19:29;6.30;99.90
32614;DHT22;19031;51.400;6.770;2023-12-14T08:21:55;6.20;99.90
32614;DHT22;19031;51.400;6.770;2023-12-14T08:24:20;6.10;99.90
32614;DHT22;19031;51.400;6.770;2023-12-14T08:26:46;6.10;99.90
32614;DHT22;19031;51.400;6.770;2023-12-14T08:29:11;6.10;99.90
32614;DHT22;19031;51.400;6.770;2023-12-14T08:31:37;6.10;99.90
32614;DHT22;19031;51.400;6.770;2023-12-14T08:34:03;6.10;99.90
32614;DHT22;19031;51.400;6.770;2023-12-14T08:36:29;6.20;99.90
32614;DHT22;19031;51.400;6.770;2023-12-14T08:38:55;6.20;99.90
32614;DHT22;19031;51.400;6.770;2023-12-14T08:41:21;6.10;99.90
32614;DHT22;19031;51.400;6.770;2023-12-14T08:43:46;6.10;99.90
32614;DHT22;19031;51.400;6.770;2023-12-14T08:46:12;6.10;99.90
32614;DHT22;19031;51.400;6.770;2023-12-14T08:48:38;6.00;99.90
32614;DHT22;19031;51.400;6.770;2023-12-14T08:51:04;6.00;99.90
32614;DHT22;19031;51.400;6.770;2023-12-14T08:53:29;6.10;99.90
32614;DHT22;19031;51.400;6.770;2023-12-14T08:55:55;6.10;99.90
32614;DHT22;19031;51.400;6.770;2023-12-14T08:58:21;6.10;99.90
32614;DHT22;19031;51.400;6.770;2023-12-14T09:00:46;6.10;99.90
32614;DHT22;19031;51.400;6.770;2023-12-14T09:03:12;6.10;99.90
32614;DHT22;19031;51.400;6.770;2023-12-14T09:05:37;6.20;99.90
32614;DHT22;19031;51.400;6.770;2023-12-14T09:08:07;6.10;99.90
32614;DHT22;19031;51.400;6.770;2023-12-14T09:10:33;6.20;99.90
32614;DHT22;19031;51.400;6.770;2023-12-14T09:12:59;6.20;99.90
32614;DHT22;19031;51.400;6.770;2023-12-14T09:15:28;6.10;99.90
32614;DHT22;19031;51.400;6.770;2023-12-14T09:17:53;6.20;99.90
32614;DHT22;19031;51.400;6.770;2023-12-14T09:20:19;6.20;99.90
32614;DHT22;19031;51.400;6.770;2023-12-14T09:22:45;6.30;99.90
32614;DHT22;19031;51.400;6.770;2023-12-14T09:25:10;6.30;99.90
32614;DHT22;19031;51.400;6.770;2023-12-14T09:27:36;6.30;99.90
32614;DHT22;19031;51.400;6.770;2023-12-14T09:30:02;6.30;99.90
32614;DHT22;19031;51.400;6.770;2023-12-14T09:32:28;6.20;99.90
32614;DHT22;19031;51.400;6.770;2023-12-14T09:34:53;6.30;99.90
32614;DHT22;19031;51.400;6.770;2023-12-14T09:37:22;6.20;99.90
32614;DHT22;19031;51.400;6.770;2023-12-14T09:39:47;6.20;99.90
32614;DHT22;19031;51.400;6.770;2023-12-14T09:42:16;6.30;99.90
32614;DHT22;19031;51.400;6.770;2023-12-14T09:44:43;6.40;99.90
32614;DHT22;19031;51.400;6.770;2023-12-14T09:47:09;6.30;99.90
32614;DHT22;19031;51.400;6.770;2023-12-14T09:49:35;6.40;99.90
32614;DHT22;19031;51.400;6.770;2023-12-14T09:52:02;6.40;99.90
32614;DHT22;19031;51.400;6.770;2023-12-14T09:54:28;6.40;99.90
32614;DHT22;19031;51.400;6.770;2023-12-14T09:56:54;6.30;99.90
32614;DHT22;19031;51.400;6.770;2023-12-14T09:59:20;6.40;99.90
32614;DHT22;19031;51.400;6.770;2023-12-14T10:01:47;6.40;99.90
32614;DHT22;19031;51.400;6.770;2023-12-14T10:04:14;6.40;99.90
32614;DHT22;19031;51.400;6.770;2023-12-14T10:06:41;6.40;99.90
32614;DHT22;19031;51.400;6.770;2023-12-14T10:09:08;6.40;99.90
32614;DHT22;19031;51.400;6.770;2023-12-14T10:11:40;6.40;99.90
32614;DHT22;19031;51.400;6.770;2023-12-14T10:14:20;6.40;99.90
32614;DHT22;19031;51.400;6.770;2023-12-14T10:16:47;6.50;99.90
32614;DHT22;19031;51.400;6.770;2023-12-14T10:19:13;6.30;99.90
32614;DHT22;19031;51.400;6.770;2023-12-14T10:21:39;6.40;99.90
32614;DHT22;19031;51.400;6.770;2023-12-14T10:24:05;6.30;99.90
32614;DHT22;19031;51.400;6.770;2023-12-14T10:26:31;6.30;99.90
32614;DHT22;19031;51.400;6.770;2023-12-14T10:28:57;6.50;99.90
32614;DHT22;19031;51.400;6.770;2023-12-14T10:31:24;6.40;99.90
32614;DHT22;19031;51.400;6.770;2023-12-14T10:33:49;6.40;99.90
32614;DHT22;19031;51.400;6.770;2023-12-14T10:36:18;6.40;99.90
32614;DHT22;19031;51.400;6.770;2023-12-14T10:38:45;6.30;99.90
32614;DHT22;19031;51.400;6.770;2023-12-14T10:41:13;6.40;99.90
32614;DHT22;19031;51.400;6.770;2023-12-14T10:43:39;6.40;99.90
32614;DHT22;19031;51.400;6.770;2023-12-14T10:46:07;6.30;99.90
32614;DHT22;19031;51.400;6.770;2023-12-14T10:48:35;6.40;99.90
32614;DHT22;19031;51.400;6.770;2023-12-14T10:51:06;6.40;99.90
32614;DHT22;19031;51.400;6.770;2023-12-14T10:53:34;6.40;99.90
32614;DHT22;19031;51.400;6.770;2023-12-14T10:56:02;6.30;99.90
32614;DHT22;19031;51.400;6.770;2023-12-14T10:58:52;6.30;99.90
32614;DHT22;19031;51.400;6.770;2023-12-14T11:01:22;6.20;99.90
32614;DHT22;19031;51.400;6.770;2023-12-14T11:03:56;6.10;99.90
32614;DHT22;19031;51.400;6.770;2023-12-14T11:08:55;6.40;99.90
32614;DHT22;19031;51.400;6.770;2023-12-14T11:11:21;6.30;99.90
32614;DHT22;19031;51.400;6.770;2023-12-14T11:13:52;6.20;99.90
32614;DHT22;19031;51.400;6.770;2023-12-14T11:16:22;6.10;99.90
32614;DHT22;19031;51.400;6.770;2023-12-14T11:18:49;6.10;99.90
32614;DHT22;19031;51.400;6.770;2023-12-14T11:21:34;6.00;99.90
32614;DHT22;19031;51.400;6.770;2023-12-14T11:24:00;6.10;99.90
32614;DHT22;19031;51.400;6.770;2023-12-14T11:26:26;6.20;99.90
32614;DHT22;19031;51.400;6.770;2023-12-14T11:28:54;6.10;99.90
32614;DHT22;19031;51.400;6.770;2023-12-14T11:31:20;6.20;99.90
32614;DHT22;19031;51.400;6.770;2023-12-14T11:33:46;6.20;99.90
32614;DHT22;19031;51.400;6.770;2023-12-14T11:36:13;6.20;99.90
32614;DHT22;19031;51.400;6.770;2023-12-14T11:38:40;6.10;99.90
32614;DHT22;19031;51.400;6.770;2023-12-14T11:41:05;6.10;99.90
32614;DHT22;19031;51.400;6.770;2023-12-14T11:43:42;6.10;99.90
32614;DHT22;19031;51.400;6.770;2023-12-14T11:46:08;6.10;99.90
32614;DHT22;19031;51.400;6.770;2023-12-14T11:48:33;6.00;99.90
32614;DHT22;19031;51.400;6.770;2023-12-14T11:50:59;6.10;99.90
32614;DHT22;19031;51.400;6.770;2023-12-14T11:53:26;6.10;99.90
32614;DHT22;19031;51.400;6.770;2023-12-14T11:55:52;6.00;99.90
32614;DHT22;19031;51.400;6.770;2023-12-14T11:58:18;6.00;99.90
32614;DHT22;19031;51.400;6.770;2023-12-14T12:00:44;6.00;99.90
32614;DHT22;19031;51.400;6.770;2023-12-14T12:03:19;6.00;99.90
32614;DHT22;19031;51.400;6.770;2023-12-14T12:05:51;5.90;99.90
32614;DHT22;19031;51.400;6.770;2023-12-14T12:08:19;5.80;99.90
32614;DHT22;19031;51.400;6.770;2023-12-14T12:10:45;5.90;99.90
32614;DHT22;19031;51.400;6.770;2023-12-14T12:13:20;5.90;99.90
32614;DHT22;19031;51.400;6.770;2023-12-14T12:15:47;6.00;99.90
32614;DHT22;19031;51.400;6.770;2023-12-14T12:18:14;6.10;99.90
32614;DHT22;19031;51.400;6.770;2023-12-14T12:20:40;6.10;99.90
32614;DHT22;19031;51.400;6.770;2023-12-14T12:23:06;6.10;99.90
32614;DHT22;19031;51.400;6.770;2023-12-14T12:25:32;6.00;99.90
32614;DHT22;19031;51.400;6.770;2023-12-14T12:27:59;5.90;99.90
32614;DHT22;19031;51.400;6.770;2023-12-14T12:30:25;6.00;99.90
32614;DHT22;19031;51.400;6.770;2023-12-14T12:32:51;6.00;99.90
32614;DHT22;19031;51.400;6.770;2023-12-14T12:35:18;6.10;99.90
32614;DHT22;19031;51.400;6.770;2023-12-14T12:37:44;6.10;99.90
32614;DHT22;19031;51.400;6.770;2023-12-14T12:40:10;6.10;99.90
32614;DHT22;19031;51.400;6.770;2023-12-14T12:42:36;6.10;99.90
32614;DHT22;19031;51.400;6.770;2023-12-14T12:45:01;6.10;99.90
32614;DHT22;19031;51.400;6.770;2023-12-14T12:47:27;6.10;99.90
32614;DHT22;19031;51.400;6.770;2023-12-14T12:49:52;6.10;99.90
32614;DHT22;19031;51.400;6.770;2023-12-14T12:52:18;6.10;99.90
32614;DHT22;19031;51.400;6.770;2023-12-14T12:54:44;6.00;99.90
32614;DHT22;19031;51.400;6.770;2023-12-14T12:57:09;6.10;99.90
32614;DHT22;19031;51.400;6.770;2023-12-14T12:59:35;6.20;99.90
32614;DHT22;19031;51.400;6.770;2023-12-14T13:02:00;6.20;99.90
32614;DHT22;19031;51.400;6.770;2023-12-14T13:04:27;6.10;99.90
32614;DHT22;19031;51.400;6.770;2023-12-14T13:06:56;6.00;99.90
32614;DHT22;19031;51.400;6.770;2023-12-14T13:09:21;6.00;99.90
32614;DHT22;19031;51.400;6.770;2023-12-14T13:11:48;6.10;99.90
32614;DHT22;19031;51.400;6.770;2023-12-14T13:14:15;6.00;99.90
32614;DHT22;19031;51.400;6.770;2023-12-14T13:16:41;5.90;99.90
32614;DHT22;19031;51.400;6.770;2023-12-14T13:19:08;6.00;99.90
32614;DHT22;19031;51.400;6.770;2023-12-14T13:21:33;6.10;99.90
32614;DHT22;19031;51.400;6.770;2023-12-14T13:23:59;6.20;99.90
32614;DHT22;19031;51.400;6.770;2023-12-14T13:26:25;6.10;99.90
32614;DHT22;19031;51.400;6.770;2023-12-14T13:28:53;6.10;99.90
32614;DHT22;19031;51.400;6.770;2023-12-14T13:31:19;6.10;99.90
32614;DHT22;19031;51.400;6.770;2023-12-14T13:33:46;6.10;99.90
32614;DHT22;19031;51.400;6.770;2023-12-14T13:36:12;6.00;99.90
32614;DHT22;19031;51.400;6.770;2023-12-14T13:38:38;6.00;99.90
32614;DHT22;19031;51.400;6.770;2023-12-14T13:41:04;6.20;99.90
32614;DHT22;19031;51.400;6.770;2023-12-14T13:43:31;6.10;99.90
32614;DHT22;19031;51.400;6.770;2023-12-14T13:45:56;6.10;99.90
32614;DHT22;19031;51.400;6.770;2023-12-14T13:48:26;6.10;99.90
32614;DHT22;19031;51.400;6.770;2023-12-14T13:50:52;6.10;99.90
32614;DHT22;19031;51.400;6.770;2023-12-14T13:53:18;6.10;99.90
32614;DHT22;19031;51.400;6.770;2023-12-14T13:55:44;6.10;99.90
32614;DHT22;19031;51.400;6.770;2023-12-14T13:58:10;6.00;99.90
32614;DHT22;19031;51.400;6.770;2023-12-14T14:00:35;6.10;99.90
32614;DHT22;19031;51.400;6.770;2023-12-14T14:03:02;6.10;99.90
32614;DHT22;19031;51.400;6.770;2023-12-14T14:05:29;6.10;99.90
32614;DHT22;19031;51.400;6.770;2023-12-14T14:07:56;6.00;99.90
32614;DHT22;19031;51.400;6.770;2023-12-14T14:10:21;5.90;99.90
32614;DHT22;19031;51.400;6.770;2023-12-14T14:12:47;6.00;99.90
32614;DHT22;19031;51.400;6.770;2023-12-14T14:15:13;6.00;99.90
32614;DHT22;19031;51.400;6.770;2023-12-14T14:17:39;5.90;99.90
32614;DHT22;19031;51.400;6.770;2023-12-14T14:20:05;5.80;99.90
32614;DHT22;19031;51.400;6.770;2023-12-14T14:22:32;5.90;99.90
32614;DHT22;19031;51.400;6.770;2023-12-14T14:24:58;5.80;99.90
32614;DHT22;19031;51.400;6.770;2023-12-14T14:27:24;5.80;99.90
32614;DHT22;19031;51.400;6.770;2023-12-14T14:29:54;6.50;99.90
32614;DHT22;19031;51.400;6.770;2023-12-14T14:32:21;5.70;99.90
32614;DHT22;19031;51.400;6.770;2023-12-14T14:34:47;5.80;99.90
32614;DHT22;19031;51.400;6.770;2023-12-14T14:37:13;5.70;99.90
32614;DHT22;19031;51.400;6.770;2023-12-14T14:39:38;5.60;99.90
32614;DHT22;19031;51.400;6.770;2023-12-14T14:42:08;5.70;99.90
32614;DHT22;19031;51.400;6.770;2023-12-14T14:44:34;5.70;99.90
32614;DHT22;19031;51.400;6.770;2023-12-14T14:47:00;5.70;99.90
32614;DHT22;19031;51.400;6.770;2023-12-14T14:49:25;5.90;99.90
32614;DHT22;19031;51.400;6.770;2023-12-14T14:51:51;5.80;99.90
32614;DHT22;19031;51.400;6.770;2023-12-14T14:54:16;5.70;99.90
32614;DHT22;19031;51.400;6.770;2023-12-14T14:56:43;5.70;99.90
32614;DHT22;19031;51.400;6.770;2023-12-14T14:59:09;5.80;99.90
32614;DHT22;19031;51.400;6.770;2023-12-14T15:01:39;5.70;99.90
32614;DHT22;19031;51.400;6.770;2023-12-14T15:04:08;5.80;99.90
32614;DHT22;19031;51.400;6.770;2023-12-14T15:06:34;5.70;99.90
32614;DHT22;19031;51.400;6.770;2023-12-14T15:09:00;5.70;99.90
32614;DHT22;19031;51.400;6.770;2023-12-14T15:11:26;5.80;99.90
32614;DHT22;19031;51.400;6.770;2023-12-14T15:13:51;5.80;99.90
32614;DHT22;19031;51.400;6.770;2023-12-14T15:16:20;5.80;99.90
32614;DHT22;19031;51.400;6.770;2023-12-14T15:18:52;5.80;99.90
32614;DHT22;19031;51.400;6.770;2023-12-14T15:21:18;5.80;99.90
32614;DHT22;19031;51.400;6.770;2023-12-14T15:23:44;5.80;99.90
32614;DHT22;19031;51.400;6.770;2023-12-14T15:26:12;5.80;99.90
32614;DHT22;19031;51.400;6.770;2023-12-14T15:28:38;5.90;99.90
32614;DHT22;19031;51.400;6.770;2023-12-14T15:31:05;5.80;99.90
32614;DHT22;19031;51.400;6.770;2023-12-14T15:33:30;5.70;99.90
32614;DHT22;19031;51.400;6.770;2023-12-14T15:35:56;5.70;99.90
32614;DHT22;19031;51.400;6.770;2023-12-14T15:38:22;5.80;99.90
32614;DHT22;19031;51.400;6.770;2023-12-14T15:40:48;5.70;99.90